Time;durP1;ratioP1;P1;durP2;ratioP2;P2;SDS_P1;SDS_P2;PMS_P1;PMS_P2;Temp;Humidity;BMP_temperature;BMP_pressure;BME280_temperature;BME280_humidity;BME280_pressure;Samples;Min_cycle;Max_cycle;Signal;HPM_P1;HPM_P2
2024/03/05 00:01:49;;;;;;;37.83;21.05;;;;;;;;;;5057147;28;20045;-77
2024/03/05 00:04:15;;;;;;;35.50;19.75;;;;;;;;;;5056501;28;20057;-76
2024/03/05 00:06:41;;;;;;;40.45;21.27;;;;;;;;;;5057043;28;20476;-76
2024/03/05 00:09:07;;;;;;;39.28;21.25;;;;;;;;;;5057039;28;20027;-77
2024/03/05 00:11:33;;;;;;;38.17;21.02;;;;;;;;;;5058412;28;20017;-75
2024/03/05 00:13:59;;;;;;;42.78;20.35;;;;;;;;;;5058370;28;20036;-76
2024/03/05 00:16:27;;;;;;;44.78;22.15;;;;;;;;;;5057976;28;20017;-77
2024/03/05 00:18:54;;;;;;;33.92;20.15;;;;;;;;;;5056933;28;20057;-77
2024/03/05 00:21:20;;;;;;;40.33;21.42;;;;;;;;;;5058151;28;20067;-77
2024/03/05 00:23:46;;;;;;;39.45;21.27;;;;;;;;;;5056864;28;20120;-77
2024/03/05 00:26:17;;;;;;;36.03;19.15;;;;;;;;;;5056637;28;20029;-77
2024/03/05 00:28:44;;;;;;;44.33;21.45;;;;;;;;;;5056876;28;20025;-75
2024/03/05 00:31:10;;;;;;;39.05;21.63;;;;;;;;;;5056614;28;20025;-76
2024/03/05 00:33:36;;;;;;;41.00;22.58;;;;;;;;;;5056805;28;20418;-75
2024/03/05 00:36:03;;;;;;;37.38;21.98;;;;;;;;;;5056661;28;20456;-77
2024/03/05 00:38:29;;;;;;;37.10;20.63;;;;;;;;;;5053349;28;20588;-76
2024/03/05 00:40:55;;;;;;;39.00;20.23;;;;;;;;;;5054899;28;20017;-77
2024/03/05 00:43:21;;;;;;;41.40;20.65;;;;;;;;;;5053340;28;20032;-76
2024/03/05 00:45:47;;;;;;;40.88;21.65;;;;;;;;;;5053574;28;20031;-76
2024/03/05 00:48:13;;;;;;;42.40;20.95;;;;;;;;;;5053269;28;20028;-76
2024/03/05 00:50:39;;;;;;;41.13;22.70;;;;;;;;;;5054781;28;20017;-76
2024/03/05 00:53:05;;;;;;;40.20;20.98;;;;;;;;;;5054760;28;20452;-76
2024/03/05 00:55:32;;;;;;;38.80;22.15;;;;;;;;;;5054247;28;20052;-77
2024/03/05 00:57:58;;;;;;;41.65;23.30;;;;;;;;;;5053319;28;20112;-77
2024/03/05 01:00:24;;;;;;;43.13;23.85;;;;;;;;;;5053039;28;20100;-77
2024/03/05 01:02:50;;;;;;;43.92;23.85;;;;;;;;;;5053194;28;20025;-78
2024/03/05 01:05:18;;;;;;;41.20;24.08;;;;;;;;;;5053996;28;20096;-77
2024/03/05 01:07:44;;;;;;;48.30;25.23;;;;;;;;;;5054867;28;20025;-77
2024/03/05 01:10:11;;;;;;;43.20;25.20;;;;;;;;;;5054643;28;20024;-78
2024/03/05 01:12:37;;;;;;;43.95;24.60;;;;;;;;;;5053973;28;20025;-77
2024/03/05 01:15:03;;;;;;;42.08;22.65;;;;;;;;;;5053624;28;20116;-76
2024/03/05 01:17:30;;;;;;;39.85;22.00;;;;;;;;;;5053763;28;20025;-77
2024/03/05 01:19:56;;;;;;;40.45;23.15;;;;;;;;;;5054617;28;20052;-77
2024/03/05 01:22:22;;;;;;;43.78;24.10;;;;;;;;;;5053050;28;20065;-75
2024/03/05 01:24:52;;;;;;;49.50;26.25;;;;;;;;;;5053359;28;20033;-74
2024/03/05 01:27:21;;;;;;;47.20;24.43;;;;;;;;;;5054236;28;20021;-75
2024/03/05 01:29:48;;;;;;;43.65;25.38;;;;;;;;;;5052613;28;20082;-76
2024/03/05 01:32:14;;;;;;;51.33;24.08;;;;;;;;;;5052652;28;20035;-76
2024/03/05 01:34:46;;;;;;;42.60;23.48;;;;;;;;;;5052830;28;20017;-75
2024/03/05 01:37:13;;;;;;;44.88;24.90;;;;;;;;;;5052535;28;20037;-76
2024/03/05 01:39:39;;;;;;;39.03;23.35;;;;;;;;;;5053802;28;20017;-76
2024/03/05 01:42:08;;;;;;;42.47;24.77;;;;;;;;;;5052578;28;20096;-76
2024/03/05 01:44:34;;;;;;;40.97;24.20;;;;;;;;;;5052213;28;20131;-76
2024/03/05 01:47:00;;;;;;;41.80;23.67;;;;;;;;;;5053688;28;20017;-76
2024/03/05 01:49:27;;;;;;;42.38;23.77;;;;;;;;;;5053083;28;20052;-76
2024/03/05 01:51:55;;;;;;;47.60;25.58;;;;;;;;;;5052367;28;20021;-78
2024/03/05 01:54:23;;;;;;;47.03;25.65;;;;;;;;;;5052070;28;20024;-77
2024/03/05 01:56:50;;;;;;;49.42;27.13;;;;;;;;;;5053537;28;20021;-78
2024/03/05 01:59:18;;;;;;;53.00;27.38;;;;;;;;;;5053410;28;20079;-79
2024/03/05 02:01:44;;;;;;;44.17;25.90;;;;;;;;;;5053692;28;20063;-79
2024/03/05 02:04:11;;;;;;;46.88;26.83;;;;;;;;;;5052030;28;20087;-78
2024/03/05 02:06:39;;;;;;;43.50;25.20;;;;;;;;;;5052929;28;20477;-79
2024/03/05 02:09:11;;;;;;;43.40;25.83;;;;;;;;;;5051641;28;20024;-79
2024/03/05 02:11:37;;;;;;;48.53;28.35;;;;;;;;;;5051786;28;20029;-78
2024/03/05 02:14:03;;;;;;;46.88;26.83;;;;;;;;;;5051954;28;20128;-77
2024/03/05 02:16:29;;;;;;;53.88;27.88;;;;;;;;;;5051711;28;20287;-78
2024/03/05 02:18:55;;;;;;;44.67;26.60;;;;;;;;;;5051588;28;20049;-77
2024/03/05 02:21:21;;;;;;;50.33;29.35;;;;;;;;;;5053005;28;20531;-76
2024/03/05 02:23:48;;;;;;;56.03;28.77;;;;;;;;;;5053309;28;20036;-76
2024/03/05 02:26:17;;;;;;;47.30;28.75;;;;;;;;;;5052064;28;20056;-76
2024/03/05 02:28:44;;;;;;;45.72;27.02;;;;;;;;;;5051782;28;20024;-76
2024/03/05 02:31:10;;;;;;;47.00;28.48;;;;;;;;;;5053035;28;20036;-76
2024/03/05 02:33:36;;;;;;;47.25;28.25;;;;;;;;;;5051289;28;20115;-77
2024/03/05 02:36:02;;;;;;;53.40;27.02;;;;;;;;;;5052785;28;20377;-77
2024/03/05 02:38:31;;;;;;;51.92;29.38;;;;;;;;;;5051310;28;20025;-77
2024/03/05 02:40:57;;;;;;;53.03;28.20;;;;;;;;;;5052753;28;20021;-76
2024/03/05 02:43:23;;;;;;;54.33;30.23;;;;;;;;;;5051102;28;20029;-76
2024/03/05 02:45:49;;;;;;;54.83;27.98;;;;;;;;;;5052598;28;20032;-75
2024/03/05 02:48:17;;;;;;;52.45;27.75;;;;;;;;;;5052406;28;20021;-76
2024/03/05 02:50:43;;;;;;;50.38;28.92;;;;;;;;;;5052301;28;20032;-76
2024/03/05 02:53:09;;;;;;;49.35;28.63;;;;;;;;;;5051009;28;20534;-76
2024/03/05 02:55:38;;;;;;;51.15;28.65;;;;;;;;;;5050840;28;20048;-76
2024/03/05 02:58:10;;;;;;;52.92;29.42;;;;;;;;;;5052379;28;20021;-76
2024/03/05 03:00:37;;;;;;;50.83;29.35;;;;;;;;;;5050286;28;20025;-76
2024/03/05 03:03:04;;;;;;;53.83;28.48;;;;;;;;;;5052175;28;20090;-76
2024/03/05 03:05:31;;;;;;;50.50;29.63;;;;;;;;;;5051100;28;20029;-76
2024/03/05 03:07:57;;;;;;;53.47;31.00;;;;;;;;;;5052883;28;20021;-76
2024/03/05 03:10:24;;;;;;;56.42;30.63;;;;;;;;;;5052438;28;20021;-76
2024/03/05 03:12:51;;;;;;;51.83;30.15;;;;;;;;;;5050900;28;20029;-76
2024/03/05 03:15:24;;;;;;;54.60;28.67;;;;;;;;;;5050921;28;20020;-77
2024/03/05 03:17:50;;;;;;;56.55;31.75;;;;;;;;;;5050871;28;20026;-77
2024/03/05 03:20:16;;;;;;;55.20;30.33;;;;;;;;;;5050636;28;20045;-76
2024/03/05 03:22:46;;;;;;;53.55;30.50;;;;;;;;;;5051832;28;20132;-76
2024/03/05 03:25:12;;;;;;;54.88;30.02;;;;;;;;;;5050894;28;20078;-77
2024/03/05 03:27:40;;;;;;;57.42;29.98;;;;;;;;;;5050620;28;20029;-76
2024/03/05 03:30:07;;;;;;;54.10;29.70;;;;;;;;;;5050884;28;20116;-75
2024/03/05 03:32:34;;;;;;;52.05;29.75;;;;;;;;;;5051853;28;20028;-76
2024/03/05 03:35:00;;;;;;;55.35;31.10;;;;;;;;;;5051981;28;20025;-77
2024/03/05 03:37:26;;;;;;;56.78;32.20;;;;;;;;;;5050383;28;20487;-76
2024/03/05 03:39:52;;;;;;;55.58;30.75;;;;;;;;;;5050695;28;20036;-76
2024/03/05 03:42:19;;;;;;;58.08;33.25;;;;;;;;;;5050628;28;20025;-76
2024/03/05 03:44:45;;;;;;;56.58;31.20;;;;;;;;;;5051670;28;20461;-76
2024/03/05 03:47:12;;;;;;;58.90;32.63;;;;;;;;;;5050567;28;20029;-76
2024/03/05 03:49:38;;;;;;;61.10;32.60;;;;;;;;;;5050378;28;20610;-77
2024/03/05 03:52:05;;;;;;;58.63;31.88;;;;;;;;;;5050560;28;20056;-76
2024/03/05 03:54:32;;;;;;;57.05;30.77;;;;;;;;;;5051718;28;20017;-78
2024/03/05 03:56:58;;;;;;;57.80;30.92;;;;;;;;;;5051906;28;20032;-77
2024/03/05 03:59:24;;;;;;;61.38;30.27;;;;;;;;;;5050267;28;20021;-77
2024/03/05 04:01:50;;;;;;;57.45;31.33;;;;;;;;;;5051958;28;20461;-77
2024/03/05 04:04:16;;;;;;;58.13;32.00;;;;;;;;;;5051803;28;20488;-76
2024/03/05 04:06:43;;;;;;;56.10;32.42;;;;;;;;;;5051817;28;20037;-77
2024/03/05 04:09:09;;;;;;;60.30;33.58;;;;;;;;;;5050516;28;20029;-77
2024/03/05 04:11:38;;;;;;;61.10;34.38;;;;;;;;;;5050158;28;20384;-77
2024/03/05 04:14:05;;;;;;;66.30;35.03;;;;;;;;;;5053874;28;20029;-77
2024/03/05 04:16:31;;;;;;;66.75;34.35;;;;;;;;;;5054032;28;20021;-77
2024/03/05 04:19:00;;;;;;;61.55;34.40;;;;;;;;;;5053810;28;20107;-76
2024/03/05 04:21:26;;;;;;;65.95;35.03;;;;;;;;;;5053851;28;20021;-76
2024/03/05 04:23:52;;;;;;;65.78;35.28;;;;;;;;;;5055347;28;20028;-77
2024/03/05 04:26:26;;;;;;;55.50;30.17;;;;;;;;;;5055355;28;20029;-77
2024/03/05 04:28:54;;;;;;;69.72;39.42;;;;;;;;;;5053952;28;20035;-76
2024/03/05 04:31:23;;;;;;;70.85;37.47;;;;;;;;;;5055233;28;20017;-76
2024/03/05 04:33:49;;;;;;;68.55;37.70;;;;;;;;;;5055087;28;20032;-76
2024/03/05 04:36:18;;;;;;;71.57;38.13;;;;;;;;;;5055212;28;20025;-77
2024/03/05 04:38:44;;;;;;;72.90;38.50;;;;;;;;;;5054890;28;20013;-76
2024/03/05 04:41:13;;;;;;;72.43;41.22;;;;;;;;;;5053921;28;20080;-75
2024/03/05 04:43:41;;;;;;;73.77;38.57;;;;;;;;;;5054125;28;20029;-76
2024/03/05 04:46:08;;;;;;;66.00;36.38;;;;;;;;;;5053836;28;20322;-77
2024/03/05 04:48:34;;;;;;;75.18;39.60;;;;;;;;;;5053367;28;20495;-76
2024/03/05 04:51:01;;;;;;;64.82;36.75;;;;;;;;;;5053568;28;20036;-76
2024/03/05 04:53:27;;;;;;;70.07;36.50;;;;;;;;;;5054687;28;20025;-76
2024/03/05 04:55:54;;;;;;;70.10;36.50;;;;;;;;;;5055110;28;20500;-76
2024/03/05 04:58:20;;;;;;;74.28;38.05;;;;;;;;;;5054995;28;20028;-76
2024/03/05 05:00:47;;;;;;;65.47;35.35;;;;;;;;;;5053670;28;20032;-76
2024/03/05 05:03:13;;;;;;;69.68;33.78;;;;;;;;;;5054928;28;20036;-77
2024/03/05 05:05:39;;;;;;;67.40;36.33;;;;;;;;;;5053041;28;20556;-76
2024/03/05 05:08:06;;;;;;;73.28;37.53;;;;;;;;;;5053331;28;20099;-76
2024/03/05 05:10:33;;;;;;;70.70;36.30;;;;;;;;;;5052952;28;20068;-77
2024/03/05 05:12:59;;;;;;;75.95;37.10;;;;;;;;;;5054507;28;20032;-76
2024/03/05 05:15:26;;;;;;;57.50;32.40;;;;;;;;;;5053128;28;20025;-76
2024/03/05 05:17:52;;;;;;;49.88;28.05;;;;;;;;;;5052883;28;20029;-77
2024/03/05 05:20:19;;;;;;;72.30;36.40;;;;;;;;;;5050460;28;20084;-77
2024/03/05 05:22:45;;;;;;;73.00;36.45;;;;;;;;;;5052734;28;20040;-77
2024/03/05 05:25:15;;;;;;;69.25;33.47;;;;;;;;;;5052177;28;20055;-77
2024/03/05 05:27:41;;;;;;;74.22;37.42;;;;;;;;;;5052589;28;20120;-78
2024/03/05 05:30:10;;;;;;;81.78;39.40;;;;;;;;;;5054511;28;20021;-78
2024/03/05 05:32:36;;;;;;;76.68;38.38;;;;;;;;;;5052601;28;20035;-77
2024/03/05 05:35:05;;;;;;;77.65;37.33;;;;;;;;;;5052815;28;20051;-77
2024/03/05 05:37:32;;;;;;;74.13;37.43;;;;;;;;;;5052520;28;20461;-77
2024/03/05 05:39:58;;;;;;;85.43;38.00;;;;;;;;;;5052757;28;20028;-78
2024/03/05 05:42:24;;;;;;;80.18;37.97;;;;;;;;;;5053718;28;20419;-77
2024/03/05 05:44:52;;;;;;;71.65;35.28;;;;;;;;;;5052988;28;20082;-76
2024/03/05 05:47:19;;;;;;;76.18;37.85;;;;;;;;;;5053069;28;20029;-77
2024/03/05 05:49:45;;;;;;;81.68;38.40;;;;;;;;;;5052863;28;20056;-77
2024/03/05 05:52:11;;;;;;;84.45;39.03;;;;;;;;;;5052376;28;20025;-77
2024/03/05 05:54:47;;;;;;;82.93;37.40;;;;;;;;;;5053382;28;20029;-78
2024/03/05 05:57:13;;;;;;;80.80;39.55;;;;;;;;;;5053645;28;20013;-78
2024/03/05 05:59:41;;;;;;;85.35;37.15;;;;;;;;;;5053097;28;20021;-77
2024/03/05 06:02:08;;;;;;;78.70;37.80;;;;;;;;;;5053813;28;20017;-78
2024/03/05 06:04:38;;;;;;;79.03;38.22;;;;;;;;;;5051926;28;20032;-78
2024/03/05 06:07:04;;;;;;;74.30;35.42;;;;;;;;;;5051819;28;20032;-78
2024/03/05 06:09:34;;;;;;;86.68;39.15;;;;;;;;;;5052104;28;20461;-77
2024/03/05 06:12:03;;;;;;;88.47;38.67;;;;;;;;;;5052123;28;20045;-77
2024/03/05 06:14:31;;;;;;;77.75;37.20;;;;;;;;;;5053026;28;20025;-77
2024/03/05 06:16:57;;;;;;;90.10;40.13;;;;;;;;;;5051848;28;20029;-77
2024/03/05 06:19:24;;;;;;;83.97;39.38;;;;;;;;;;5051265;28;20056;-78
2024/03/05 06:21:50;;;;;;;92.60;39.67;;;;;;;;;;5051461;28;20025;-77
2024/03/05 06:24:16;;;;;;;86.75;40.00;;;;;;;;;;5051773;28;20025;-76
2024/03/05 06:26:42;;;;;;;86.35;39.75;;;;;;;;;;5052517;28;20036;-76
2024/03/05 06:29:09;;;;;;;86.75;41.38;;;;;;;;;;5051673;28;20025;-76
2024/03/05 06:31:35;;;;;;;92.43;40.53;;;;;;;;;;5051340;28;20048;-76
2024/03/05 06:34:05;;;;;;;98.43;39.90;;;;;;;;;;5051563;28;20021;-76
2024/03/05 06:36:31;;;;;;;86.70;38.65;;;;;;;;;;5051916;28;20021;-77
2024/03/05 06:39:00;;;;;;;72.75;33.70;;;;;;;;;;5051413;28;20031;-77
2024/03/05 06:41:27;;;;;;;86.20;36.20;;;;;;;;;;5051461;28;20103;-77
2024/03/05 06:43:59;;;;;;;68.25;33.67;;;;;;;;;;5051155;28;20159;-76
2024/03/05 06:46:29;;;;;;;78.80;36.22;;;;;;;;;;5054299;28;20021;-77
2024/03/05 06:49:00;;;;;;;78.90;35.88;;;;;;;;;;5051911;28;20445;-77
2024/03/05 06:51:31;;;;;;;79.45;35.45;;;;;;;;;;5051633;28;20075;-76
2024/03/05 06:56:41;;;;;;;78.13;35.17;;;;;;;;;;5052540;28;20048;-76
2024/03/05 06:59:10;;;;;;;80.57;35.60;;;;;;;;;;5051506;28;20025;-76
2024/03/05 07:01:36;;;;;;;74.90;34.33;;;;;;;;;;5052871;28;20013;-77
2024/03/05 07:04:05;;;;;;;78.68;36.67;;;;;;;;;;5052479;28;20032;-77
2024/03/05 07:06:32;;;;;;;76.25;38.70;;;;;;;;;;5051092;28;20044;-77
2024/03/05 07:08:59;;;;;;;80.22;38.25;;;;;;;;;;5052074;28;20025;-77
2024/03/05 07:11:26;;;;;;;83.68;39.75;;;;;;;;;;5050947;28;20464;-78
2024/03/05 07:13:53;;;;;;;83.07;37.78;;;;;;;;;;5050607;28;20035;-76
2024/03/05 07:16:20;;;;;;;85.80;40.00;;;;;;;;;;5051000;28;20028;-76
2024/03/05 07:18:49;;;;;;;85.82;37.50;;;;;;;;;;5051914;28;20477;-76
2024/03/05 07:21:22;;;;;;;88.72;40.85;;;;;;;;;;5052248;28;20060;-77
2024/03/05 07:23:51;;;;;;;94.25;40.47;;;;;;;;;;5050566;28;20087;-78
2024/03/05 07:26:18;;;;;;;85.20;40.57;;;;;;;;;;5050849;28;20036;-77
2024/03/05 07:28:44;;;;;;;84.45;37.75;;;;;;;;;;5050597;28;20271;-77
2024/03/05 07:31:11;;;;;;;86.13;38.60;;;;;;;;;;5050887;28;20025;-77
2024/03/05 07:33:38;;;;;;;85.25;39.15;;;;;;;;;;5050631;28;20029;-77
2024/03/05 07:36:04;;;;;;;91.18;41.92;;;;;;;;;;5050359;28;20032;-76
2024/03/05 07:38:31;;;;;;;91.72;42.20;;;;;;;;;;5050649;28;20025;-76
2024/03/05 07:40:57;;;;;;;98.45;44.47;;;;;;;;;;5050430;28;20079;-76
2024/03/05 07:43:23;;;;;;;93.00;44.03;;;;;;;;;;5052138;28;20033;-76
2024/03/05 07:45:49;;;;;;;81.25;42.13;;;;;;;;;;5050441;28;20028;-76
2024/03/05 07:48:15;;;;;;;84.82;41.40;;;;;;;;;;5054278;28;20033;-76
2024/03/05 07:50:42;;;;;;;92.25;41.08;;;;;;;;;;5054435;28;20061;-75
2024/03/05 07:53:08;;;;;;;82.30;35.70;;;;;;;;;;5056070;28;20035;-77
2024/03/05 07:55:37;;;;;;;90.00;44.40;;;;;;;;;;5055874;28;20028;-75
2024/03/05 07:58:03;;;;;;;89.25;41.70;;;;;;;;;;5054581;28;20427;-76
2024/03/05 08:00:30;;;;;;;82.45;41.17;;;;;;;;;;5054371;28;20388;-77
2024/03/05 08:02:57;;;;;;;87.80;42.17;;;;;;;;;;5054111;28;20032;-75
2024/03/05 08:05:24;;;;;;;85.03;40.08;;;;;;;;;;5054317;28;20044;-76
2024/03/05 08:07:54;;;;;;;89.00;41.45;;;;;;;;;;5054074;28;20109;-76
2024/03/05 08:10:20;;;;;;;94.55;43.33;;;;;;;;;;5054290;28;20028;-76
2024/03/05 08:12:47;;;;;;;94.43;42.55;;;;;;;;;;5055374;28;20456;-76
2024/03/05 08:15:15;;;;;;;99.15;44.75;;;;;;;;;;5055263;28;20072;-76
2024/03/05 08:17:41;;;;;;;98.28;45.22;;;;;;;;;;5053953;28;20017;-76
2024/03/05 08:20:08;;;;;;;94.95;44.25;;;;;;;;;;5055667;28;20045;-76
2024/03/05 08:22:34;;;;;;;96.07;43.53;;;;;;;;;;5053980;28;20021;-76
2024/03/05 08:25:09;;;;;;;97.07;44.33;;;;;;;;;;5053924;28;20089;-76
2024/03/05 08:27:35;;;;;;;104.13;43.60;;;;;;;;;;5055648;28;20021;-77
2024/03/05 08:30:01;;;;;;;99.35;44.42;;;;;;;;;;5053763;28;20116;-76
2024/03/05 08:32:27;;;;;;;97.78;46.60;;;;;;;;;;5053890;28;20032;-76
2024/03/05 08:34:53;;;;;;;98.68;45.75;;;;;;;;;;5053652;28;20025;-76
2024/03/05 08:37:19;;;;;;;91.20;43.03;;;;;;;;;;5053937;28;20495;-75
2024/03/05 08:39:45;;;;;;;102.80;46.70;;;;;;;;;;5055281;28;20024;-75
2024/03/05 08:42:11;;;;;;;96.35;44.88;;;;;;;;;;5054934;28;20021;-75
2024/03/05 08:44:37;;;;;;;90.68;43.38;;;;;;;;;;5053930;28;20029;-75
2024/03/05 08:47:03;;;;;;;95.93;44.40;;;;;;;;;;5053385;28;20036;-75
2024/03/05 08:49:29;;;;;;;95.60;43.10;;;;;;;;;;5053525;28;20031;-75
2024/03/05 08:51:58;;;;;;;88.05;38.67;;;;;;;;;;5054611;28;20025;-76
2024/03/05 08:54:24;;;;;;;93.85;44.40;;;;;;;;;;5053488;28;20472;-75
2024/03/05 08:56:50;;;;;;;102.32;46.50;;;;;;;;;;5053307;28;20033;-74
2024/03/05 08:59:16;;;;;;;97.22;42.92;;;;;;;;;;5053789;28;20087;-76
2024/03/05 09:01:42;;;;;;;103.95;45.55;;;;;;;;;;5054508;28;20071;-75
2024/03/05 09:04:09;;;;;;;98.45;46.65;;;;;;;;;;5054385;28;20539;-75
2024/03/05 09:06:36;;;;;;;101.97;47.20;;;;;;;;;;5053360;28;20028;-75
2024/03/05 09:09:02;;;;;;;93.93;45.20;;;;;;;;;;5053170;28;20115;-76
2024/03/05 09:11:28;;;;;;;97.68;44.58;;;;;;;;;;5054278;28;20498;-76
2024/03/05 09:13:54;;;;;;;89.18;44.50;;;;;;;;;;5054289;28;20025;-76
2024/03/05 09:16:20;;;;;;;94.35;44.65;;;;;;;;;;5053325;28;20106;-76
2024/03/05 09:18:46;;;;;;;88.70;41.00;;;;;;;;;;5053968;28;20175;-75
2024/03/05 09:21:13;;;;;;;93.65;45.38;;;;;;;;;;5054285;28;20025;-76
2024/03/05 09:23:39;;;;;;;97.80;47.05;;;;;;;;;;5054248;28;20332;-76
2024/03/05 09:26:07;;;;;;;105.00;47.33;;;;;;;;;;5052692;28;20052;-76
2024/03/05 09:28:34;;;;;;;93.70;44.50;;;;;;;;;;5052783;28;20032;-75
2024/03/05 09:31:00;;;;;;;100.85;48.05;;;;;;;;;;5053967;28;20108;-75
2024/03/05 09:33:26;;;;;;;97.32;47.80;;;;;;;;;;5054081;28;20052;-74
2024/03/05 09:35:52;;;;;;;94.20;46.00;;;;;;;;;;5053643;28;20021;-75
2024/03/05 09:38:19;;;;;;;97.93;48.20;;;;;;;;;;5053795;28;20530;-75
2024/03/05 09:40:46;;;;;;;93.50;47.03;;;;;;;;;;5052379;28;20070;-74
2024/03/05 09:43:16;;;;;;;93.47;46.72;;;;;;;;;;5053820;28;20079;-75
2024/03/05 09:45:47;;;;;;;96.57;48.47;;;;;;;;;;5052529;28;20560;-75
2024/03/05 09:48:13;;;;;;;92.28;46.45;;;;;;;;;;5052464;28;20488;-75
2024/03/05 09:50:39;;;;;;;98.75;49.67;;;;;;;;;;5054022;28;20088;-75
2024/03/05 09:53:06;;;;;;;91.20;45.38;;;;;;;;;;5053492;28;20024;-75
2024/03/05 09:55:32;;;;;;;86.60;46.35;;;;;;;;;;5052357;28;20020;-75
2024/03/05 09:57:59;;;;;;;88.85;44.70;;;;;;;;;;5053391;28;20029;-75
2024/03/05 10:00:27;;;;;;;92.72;46.20;;;;;;;;;;5052270;28;20108;-76
2024/03/05 10:02:53;;;;;;;85.13;46.20;;;;;;;;;;5051993;28;20036;-76
2024/03/05 10:05:19;;;;;;;83.57;44.20;;;;;;;;;;5052191;28;20060;-76
2024/03/05 10:07:48;;;;;;;81.82;44.10;;;;;;;;;;5051849;28;20033;-75
2024/03/05 10:10:18;;;;;;;91.32;45.85;;;;;;;;;;5051831;28;20028;-76
2024/03/05 10:12:44;;;;;;;77.38;40.75;;;;;;;;;;5051855;28;20036;-76
2024/03/05 10:15:43;;;;;;;82.75;43.42;;;;;;;;;;5052018;28;20087;-76
2024/03/05 10:18:09;;;;;;;79.82;43.65;;;;;;;;;;5052212;28;20402;-75
2024/03/05 10:20:39;;;;;;;84.68;43.30;;;;;;;;;;5051465;28;20076;-76
2024/03/05 10:23:05;;;;;;;80.35;41.00;;;;;;;;;;5051535;28;20369;-75
2024/03/05 10:25:33;;;;;;;74.75;41.63;;;;;;;;;;5051863;28;20123;-75
2024/03/05 10:28:02;;;;;;;76.22;41.00;;;;;;;;;;5051675;28;20025;-75
2024/03/05 10:30:31;;;;;;;81.40;43.50;;;;;;;;;;5051979;28;20029;-75
2024/03/05 10:32:59;;;;;;;55.75;27.98;;;;;;;;;;5053437;28;20025;-76
2024/03/05 10:35:25;;;;;;;76.53;40.30;;;;;;;;;;5051626;28;20117;-76
2024/03/05 10:37:58;;;;;;;76.25;41.58;;;;;;;;;;5051289;28;20021;-75
2024/03/05 10:40:25;;;;;;;73.03;40.67;;;;;;;;;;5052813;28;20017;-75
2024/03/05 10:42:52;;;;;;;70.72;39.38;;;;;;;;;;5052442;28;20025;-75
2024/03/05 10:45:23;;;;;;;72.57;39.97;;;;;;;;;;5051481;28;20032;-75
2024/03/05 10:47:49;;;;;;;72.57;38.85;;;;;;;;;;5051091;28;20021;-75
2024/03/05 10:50:16;;;;;;;71.25;39.13;;;;;;;;;;5051319;28;20033;-75
2024/03/05 10:52:42;;;;;;;70.00;40.85;;;;;;;;;;5050947;28;20492;-75
2024/03/05 10:55:11;;;;;;;71.15;40.15;;;;;;;;;;5051030;28;20029;-75
2024/03/05 10:58:13;;;;;;;68.57;37.20;;;;;;;;;;5052810;28;20027;-75
2024/03/05 11:00:24;;;;;;;66.18;37.65;;;;;;;;;;5052384;28;20528;-76
2024/03/05 11:02:52;;;;;;;66.18;38.20;;;;;;;;;;5052368;28;20021;-76
2024/03/05 11:05:18;;;;;;;62.85;35.80;;;;;;;;;;5051085;28;20472;-75
2024/03/05 11:07:47;;;;;;;64.40;38.00;;;;;;;;;;5052150;28;20025;-75
2024/03/05 11:10:13;;;;;;;68.30;36.22;;;;;;;;;;5051144;28;20104;-76
2024/03/05 11:12:40;;;;;;;66.72;36.50;;;;;;;;;;5052245;28;20056;-76
2024/03/05 11:15:11;;;;;;;63.53;37.05;;;;;;;;;;5050793;28;20439;-76
2024/03/05 11:17:37;;;;;;;64.75;35.60;;;;;;;;;;5050998;28;20029;-75
2024/03/05 11:20:03;;;;;;;57.47;32.65;;;;;;;;;;5048366;28;20106;-76
2024/03/05 11:22:30;;;;;;;61.80;35.03;;;;;;;;;;5050317;28;20029;-76
2024/03/05 11:25:05;;;;;;;59.05;34.25;;;;;;;;;;5050507;28;20432;-76
2024/03/05 11:27:33;;;;;;;58.05;33.38;;;;;;;;;;5050958;28;20086;-76
2024/03/05 11:30:20;;;;;;;63.80;34.42;;;;;;;;;;5050712;28;20025;-75
2024/03/05 11:32:50;;;;;;;62.72;35.33;;;;;;;;;;5051069;28;20029;-75
2024/03/05 11:35:19;;;;;;;49.70;31.48;;;;;;;;;;5051163;28;20021;-75
2024/03/05 11:37:48;;;;;;;43.65;27.60;;;;;;;;;;5051951;28;20021;-76
2024/03/05 11:40:15;;;;;;;50.03;27.90;;;;;;;;;;5052149;28;20025;-76
2024/03/05 11:42:46;;;;;;;51.30;28.38;;;;;;;;;;5052022;28;20032;-76
2024/03/05 11:45:14;;;;;;;36.58;23.58;;;;;;;;;;5050311;28;20465;-76
2024/03/05 11:47:41;;;;;;;39.22;23.52;;;;;;;;;;5051897;28;20021;-76
2024/03/05 11:50:08;;;;;;;42.58;24.17;;;;;;;;;;5051699;28;20071;-76
2024/03/05 11:52:35;;;;;;;39.25;23.23;;;;;;;;;;5051920;28;20348;-76
2024/03/05 11:55:05;;;;;;;39.30;24.27;;;;;;;;;;5050451;28;20021;-75
2024/03/05 11:57:32;;;;;;;38.63;25.20;;;;;;;;;;5050454;28;20028;-76
2024/03/05 11:59:59;;;;;;;39.28;25.00;;;;;;;;;;5051236;28;20428;-76
2024/03/05 12:02:25;;;;;;;45.58;27.23;;;;;;;;;;5050516;28;20021;-78
2024/03/05 12:04:51;;;;;;;47.33;28.30;;;;;;;;;;5051558;28;20091;-77
2024/03/05 12:07:17;;;;;;;46.50;28.13;;;;;;;;;;5050648;28;20075;-77
2024/03/05 12:09:43;;;;;;;46.10;29.33;;;;;;;;;;5050381;28;20451;-76
2024/03/05 12:12:10;;;;;;;56.38;31.00;;;;;;;;;;5051667;28;20056;-76
2024/03/05 12:14:37;;;;;;;50.25;31.90;;;;;;;;;;5050556;28;20051;-77
2024/03/05 12:17:07;;;;;;;50.38;29.48;;;;;;;;;;5051714;28;20083;-76
2024/03/05 12:19:37;;;;;;;53.85;32.47;;;;;;;;;;5052215;28;20233;-76
2024/03/05 12:22:04;;;;;;;54.25;34.30;;;;;;;;;;5050720;28;20028;-75
2024/03/05 12:24:31;;;;;;;52.40;33.65;;;;;;;;;;5052168;28;20083;-75
2024/03/05 12:26:57;;;;;;;46.75;32.38;;;;;;;;;;5051702;28;20202;-76
2024/03/05 12:29:33;;;;;;;52.03;31.27;;;;;;;;;;5050293;28;20037;-76
2024/03/05 12:32:02;;;;;;;46.47;30.83;;;;;;;;;;5049928;28;20116;-75
2024/03/05 12:34:28;;;;;;;46.35;29.98;;;;;;;;;;5052697;28;20033;-75
2024/03/05 12:36:55;;;;;;;50.55;32.85;;;;;;;;;;5053525;28;20029;-76
2024/03/05 12:39:21;;;;;;;54.50;32.65;;;;;;;;;;5053919;28;20412;-76
2024/03/05 12:42:03;;;;;;;55.20;31.95;;;;;;;;;;5053783;28;20028;-75
2024/03/05 12:44:33;;;;;;;40.92;27.20;;;;;;;;;;5055145;28;20083;-76
2024/03/05 12:47:10;;;;;;;39.70;26.20;;;;;;;;;;5053583;28;20499;-75
2024/03/05 12:49:45;;;;;;;42.78;26.75;;;;;;;;;;5053696;28;20032;-76
2024/03/05 12:52:21;;;;;;;34.17;22.30;;;;;;;;;;5054981;28;20048;-76
2024/03/05 12:54:56;;;;;;;37.08;23.55;;;;;;;;;;5055089;28;20036;-76
2024/03/05 12:57:29;;;;;;;46.38;27.33;;;;;;;;;;5054951;28;20060;-75
2024/03/05 13:00:00;;;;;;;44.30;25.98;;;;;;;;;;5054535;28;20022;-75
2024/03/05 13:02:26;;;;;;;43.30;26.02;;;;;;;;;;5053350;28;20091;-76
2024/03/05 13:04:52;;;;;;;46.53;27.95;;;;;;;;;;5053111;28;20040;-75
2024/03/05 13:07:19;;;;;;;47.15;28.58;;;;;;;;;;5054511;28;20100;-76
2024/03/05 13:09:45;;;;;;;47.13;28.08;;;;;;;;;;5054319;28;20025;-75
2024/03/05 13:12:11;;;;;;;48.63;28.05;;;;;;;;;;5054049;28;20017;-76
2024/03/05 13:14:37;;;;;;;50.28;29.10;;;;;;;;;;5052932;28;20053;-75
2024/03/05 13:17:06;;;;;;;48.58;30.42;;;;;;;;;;5052894;28;20469;-75
2024/03/05 13:19:32;;;;;;;53.60;29.65;;;;;;;;;;5052848;28;20049;-75
2024/03/05 13:21:59;;;;;;;46.65;30.15;;;;;;;;;;5054595;28;20028;-76
2024/03/05 13:24:25;;;;;;;47.65;29.13;;;;;;;;;;5052944;28;20025;-76
2024/03/05 13:26:51;;;;;;;55.88;29.25;;;;;;;;;;5054313;28;20527;-76
2024/03/05 13:29:19;;;;;;;49.50;29.50;;;;;;;;;;5052622;28;20028;-75
2024/03/05 13:31:45;;;;;;;43.55;26.85;;;;;;;;;;5052927;28;20063;-75
2024/03/05 13:34:11;;;;;;;48.72;30.88;;;;;;;;;;5052332;28;20040;-75
2024/03/05 13:36:38;;;;;;;46.20;27.98;;;;;;;;;;5052693;28;20017;-76
2024/03/05 13:39:11;;;;;;;41.53;28.55;;;;;;;;;;5053798;28;20025;-75
2024/03/05 13:41:40;;;;;;;47.38;29.15;;;;;;;;;;5052146;28;20025;-75
2024/03/05 13:44:07;;;;;;;49.10;28.70;;;;;;;;;;5053694;28;20025;-75
2024/03/05 13:46:39;;;;;;;45.40;27.77;;;;;;;;;;5053354;28;20025;-76
2024/03/05 13:49:08;;;;;;;50.40;29.05;;;;;;;;;;5052401;28;20112;-76
2024/03/05 13:51:34;;;;;;;49.92;30.02;;;;;;;;;;5052603;28;20453;-75
2024/03/05 13:54:04;;;;;;;54.53;32.10;;;;;;;;;;5051985;28;20036;-76
2024/03/05 13:56:30;;;;;;;52.13;29.75;;;;;;;;;;5052415;28;20025;-76
2024/03/05 13:59:00;;;;;;;53.00;31.95;;;;;;;;;;5052274;28;20028;-76
2024/03/05 14:01:26;;;;;;;55.80;33.92;;;;;;;;;;5052266;28;20025;-76
2024/03/05 14:03:56;;;;;;;51.10;30.70;;;;;;;;;;5052216;28;20052;-76
2024/03/05 14:06:22;;;;;;;56.47;33.92;;;;;;;;;;5052137;28;20472;-75
2024/03/05 14:08:52;;;;;;;48.47;31.13;;;;;;;;;;5052138;28;20021;-76
2024/03/05 14:11:18;;;;;;;43.42;28.05;;;;;;;;;;5053866;28;20028;-76
2024/03/05 14:13:44;;;;;;;54.08;34.30;;;;;;;;;;5052667;28;20017;-76
2024/03/05 14:16:13;;;;;;;54.53;33.42;;;;;;;;;;5052508;28;20100;-76
2024/03/05 14:18:44;;;;;;;54.60;33.53;;;;;;;;;;5052310;28;20103;-76
2024/03/05 14:21:10;;;;;;;52.22;33.47;;;;;;;;;;5051849;28;20025;-77